Time;durP1;ratioP1;P1;durP2;ratioP2;P2;SDS_P1;SDS_P2;PMS_P1;PMS_P2;Temp;Humidity;BMP_temperature;BMP_pressure;BME280_temperature;BME280_humidity;BME280_pressure;Samples;Min_cycle;Max_cycle;Signal;HPM_P1;HPM_P2
2022/03/06 00:02:26;;;;;;;27.60;15.90;;;3.60;66.00;;;;;;5001813;28;20268;-67
2022/03/06 00:04:54;;;;;;;25.40;15.10;;;3.60;65.90;;;;;;5017767;28;20217;-67
2022/03/06 00:07:21;;;;;;;29.13;15.73;;;3.70;65.80;;;;;;5012916;28;20200;-67
2022/03/06 00:09:48;;;;;;;30.93;16.67;;;3.70;65.90;;;;;;5021422;28;20199;-67
2022/03/06 00:12:15;;;;;;;29.93;16.03;;;3.70;65.80;;;;;;5016855;28;20200;-68
2022/03/06 00:14:42;;;;;;;29.03;16.07;;;3.80;65.90;;;;;;5018041;28;20562;-67
2022/03/06 00:17:09;;;;;;;29.93;16.43;;;3.80;65.90;;;;;;4994951;28;20221;-67
2022/03/06 00:19:36;;;;;;;27.43;16.17;;;3.80;66.00;;;;;;4991922;28;20574;-67
2022/03/06 00:22:04;;;;;;;24.97;15.83;;;3.80;65.90;;;;;;5023425;28;20243;-67
2022/03/06 00:24:31;;;;;;;24.53;14.73;;;3.70;65.80;;;;;;5020279;28;20215;-67
2022/03/06 00:26:58;;;;;;;30.33;15.03;;;3.70;66.50;;;;;;5016504;28;20571;-67
2022/03/06 00:29:25;;;;;;;29.73;15.63;;;3.70;65.80;;;;;;5013326;28;20196;-67
2022/03/06 00:31:52;;;;;;;30.97;16.07;;;3.60;65.70;;;;;;5022014;28;20207;-67
2022/03/06 00:34:19;;;;;;;31.00;16.53;;;3.60;65.80;;;;;;5025564;28;20207;-67
2022/03/06 00:36:46;;;;;;;28.50;16.23;;;3.50;66.00;;;;;;5024871;28;20198;-67
2022/03/06 00:39:18;;;;;;;31.63;16.60;;;3.40;66.20;;;;;;5017971;28;20283;-67
2022/03/06 00:41:45;;;;;;;26.27;16.73;;;3.30;66.40;;;;;;5019395;28;20204;-67
2022/03/06 00:44:12;;;;;;;27.50;15.67;;;3.30;66.60;;;;;;5024358;28;20219;-67
2022/03/06 00:46:40;;;;;;;29.27;15.77;;;3.20;66.60;;;;;;5025045;28;20298;-67
2022/03/06 00:49:07;;;;;;;33.70;16.50;;;3.20;66.60;;;;;;4999770;28;20214;-67
2022/03/06 00:51:34;;;;;;;27.73;15.50;;;3.10;66.80;;;;;;5014977;28;20209;-67
2022/03/06 00:54:01;;;;;;;28.53;15.33;;;3.10;66.70;;;;;;5028999;28;20196;-67
2022/03/06 00:56:28;;;;;;;28.93;16.47;;;3.10;66.60;;;;;;5029193;28;20226;-67
2022/03/06 00:58:55;;;;;;;26.67;14.63;;;3.10;66.70;;;;;;5030083;28;20237;-67
2022/03/06 01:01:23;;;;;;;28.77;15.00;;;3.10;66.60;;;;;;5017434;28;20239;-67
2022/03/06 01:03:50;;;;;;;30.47;15.97;;;3.00;66.60;;;;;;5019286;28;20258;-67
2022/03/06 01:06:17;;;;;;;30.13;16.33;;;2.90;66.30;;;;;;5024284;28;20226;-67
2022/03/06 01:08:44;;;;;;;29.23;15.80;;;3.00;66.40;;;;;;5027337;28;20209;-67
2022/03/06 01:11:12;;;;;;;28.63;16.27;;;2.90;66.10;;;;;;5019084;28;20220;-67
2022/03/06 01:13:39;;;;;;;27.53;16.17;;;2.90;65.90;;;;;;5018618;28;20262;-67
2022/03/06 01:16:06;;;;;;;34.77;15.63;;;2.90;65.50;;;;;;4992910;28;20212;-67
2022/03/06 01:18:33;;;;;;;25.43;14.23;;;2.90;65.30;;;;;;5026761;28;20209;-67
2022/03/06 01:21:00;;;;;;;29.97;16.10;;;2.90;65.00;;;;;;5003197;28;20337;-67
2022/03/06 01:23:28;;;;;;;28.10;16.63;;;3.00;65.00;;;;;;5018945;28;20205;-67
2022/03/06 01:25:55;;;;;;;26.20;15.60;;;3.00;65.10;;;;;;5023957;28;20217;-67
2022/03/06 01:28:22;;;;;;;24.33;15.57;;;2.90;65.10;;;;;;5024077;28;20199;-67
2022/03/06 01:30:49;;;;;;;27.93;15.27;;;2.90;65.10;;;;;;5026150;28;20267;-67
2022/03/06 01:33:16;;;;;;;27.80;15.47;;;2.90;65.10;;;;;;5025278;28;20224;-67
2022/03/06 01:35:43;;;;;;;28.23;15.87;;;2.90;65.10;;;;;;5019447;28;20207;-67
2022/03/06 01:38:10;;;;;;;30.33;16.40;;;2.90;64.90;;;;;;5022005;28;20216;-67
2022/03/06 01:40:37;;;;;;;25.50;15.10;;;2.90;64.50;;;;;;5024577;28;20203;-67
2022/03/06 01:43:05;;;;;;;29.73;16.60;;;2.90;64.40;;;;;;5021082;28;20202;-67
2022/03/06 01:45:32;;;;;;;26.97;15.83;;;2.80;64.40;;;;;;5018044;28;20212;-67
2022/03/06 01:48:01;;;;;;;28.30;16.20;;;2.70;64.60;;;;;;5024052;28;20257;-67
2022/03/06 01:50:32;;;;;;;29.70;15.70;;;2.70;64.70;;;;;;5023570;28;20204;-67
2022/03/06 01:53:02;;;;;;;30.93;16.13;;;2.60;64.70;;;;;;5008815;28;20625;-67
2022/03/06 01:55:30;;;;;;;31.47;15.33;;;2.60;64.80;;;;;;5019003;28;20212;-67
2022/03/06 01:57:59;;;;;;;31.00;15.20;;;2.60;64.90;;;;;;5023407;28;20211;-67
2022/03/06 02:00:30;;;;;;;28.63;16.43;;;2.50;65.20;;;;;;5004217;28;20239;-67
2022/03/06 02:02:57;;;;;;;28.43;15.80;;;2.50;65.40;;;;;;5025368;28;20290;-67
2022/03/06 02:05:25;;;;;;;28.27;14.60;;;2.50;65.50;;;;;;5018528;28;20227;-67
2022/03/06 02:07:52;;;;;;;28.93;15.47;;;2.50;65.40;;;;;;5000837;28;20538;-67
2022/03/06 02:10:19;;;;;;;31.30;16.00;;;2.60;65.40;;;;;;5019014;28;20589;-67
2022/03/06 02:12:47;;;;;;;28.00;15.10;;;2.60;65.20;;;;;;5024813;28;20728;-67
2022/03/06 02:15:15;;;;;;;27.60;16.77;;;2.60;65.10;;;;;;5022706;28;20265;-67
2022/03/06 02:17:44;;;;;;;26.60;15.97;;;2.60;65.00;;;;;;5017406;28;20201;-67
2022/03/06 02:20:16;;;;;;;25.13;14.90;;;2.60;65.00;;;;;;4993028;28;20558;-67
2022/03/06 02:22:48;;;;;;;30.03;16.23;;;2.60;65.00;;;;;;5021880;28;20207;-67
2022/03/06 02:25:16;;;;;;;35.00;15.83;;;2.60;65.10;;;;;;5026045;28;20284;-67
2022/03/06 02:27:44;;;;;;;32.70;16.43;;;2.60;65.10;;;;;;5026025;28;20215;-67
2022/03/06 02:30:21;;;;;;;26.37;15.37;;;2.50;65.20;;;;;;4998965;28;20641;-67
2022/03/06 02:32:51;;;;;;;31.10;15.73;;;2.50;66.00;;;;;;5021972;28;20200;-67
2022/03/06 02:35:18;;;;;;;27.63;16.00;;;2.50;65.40;;;;;;5024259;28;20212;-67
2022/03/06 02:37:46;;;;;;;26.40;15.00;;;2.50;65.40;;;;;;5021694;28;20223;-67
2022/03/06 02:40:16;;;;;;;30.87;15.33;;;2.50;65.50;;;;;;5015373;28;20205;-67
2022/03/06 02:42:44;;;;;;;28.63;15.87;;;2.50;65.50;;;;;;5015786;28;20654;-67
2022/03/06 02:45:20;;;;;;;26.93;15.13;;;2.40;65.50;;;;;;5027780;28;20646;-67
2022/03/06 02:47:49;;;;;;;27.30;17.23;;;2.50;65.60;;;;;;5024322;28;20271;-67
2022/03/06 02:50:19;;;;;;;31.17;15.93;;;2.40;65.70;;;;;;5031472;28;20290;-67
2022/03/06 02:52:46;;;;;;;25.27;15.20;;;2.40;65.70;;;;;;5018790;28;20203;-67
2022/03/06 02:55:15;;;;;;;29.63;16.30;;;2.40;65.70;;;;;;5020770;28;20204;-67
2022/03/06 02:57:43;;;;;;;31.03;14.30;;;2.40;65.70;;;;;;5024950;28;20222;-67
2022/03/06 03:00:13;;;;;;;29.47;16.13;;;2.40;65.70;;;;;;5022554;28;20532;-67
2022/03/06 03:02:41;;;;;;;28.90;15.60;;;2.40;65.70;;;;;;5018238;28;20266;-67
2022/03/06 03:05:12;;;;;;;26.77;14.77;;;2.40;65.70;;;;;;5016183;28;20216;-67
2022/03/06 03:07:41;;;;;;;30.40;15.37;;;2.30;65.60;;;;;;5026103;28;20607;-67
2022/03/06 03:10:10;;;;;;;23.73;15.63;;;2.30;65.70;;;;;;5022026;28;20208;-67
2022/03/06 03:12:37;;;;;;;25.60;15.17;;;2.30;65.80;;;;;;5011426;28;20560;-67
2022/03/06 03:15:06;;;;;;;26.77;15.13;;;2.30;65.80;;;;;;5025337;28;20210;-67
2022/03/06 03:17:34;;;;;;;30.17;16.20;;;2.30;65.80;;;;;;5023739;28;20219;-67
2022/03/06 03:20:01;;;;;;;25.57;14.73;;;2.30;65.90;;;;;;5024905;28;20216;-67
2022/03/06 03:22:28;;;;;;;29.50;15.70;;;2.30;65.90;;;;;;5026038;28;20227;-67
2022/03/06 03:24:55;;;;;;;29.43;16.67;;;2.20;65.90;;;;;;5017820;28;20301;-67
2022/03/06 03:27:22;;;;;;;30.97;18.00;;;2.20;65.90;;;;;;5020190;28;20232;-67
2022/03/06 03:29:49;;;;;;;29.43;16.20;;;2.20;65.90;;;;;;5022961;28;20520;-67
2022/03/06 03:32:16;;;;;;;27.80;16.60;;;2.20;65.90;;;;;;5022695;28;20204;-67
2022/03/06 03:34:43;;;;;;;29.77;15.07;;;2.20;66.00;;;;;;4999772;28;20222;-67
2022/03/06 03:37:10;;;;;;;26.43;15.50;;;2.20;66.00;;;;;;5016255;28;20216;-67
2022/03/06 03:39:37;;;;;;;26.03;15.93;;;2.20;66.10;;;;;;5001326;28;20218;-67
2022/03/06 03:42:04;;;;;;;24.30;14.93;;;2.20;66.10;;;;;;5022392;28;20200;-67
2022/03/06 03:44:31;;;;;;;25.50;14.97;;;2.20;66.10;;;;;;5024164;28;20628;-67
2022/03/06 03:46:58;;;;;;;30.07;15.13;;;2.20;66.20;;;;;;5021855;28;20216;-67
2022/03/06 03:49:25;;;;;;;24.37;15.40;;;2.20;66.20;;;;;;5000007;28;20217;-67
2022/03/06 03:51:52;;;;;;;26.77;14.97;;;2.20;66.20;;;;;;5021395;28;20203;-67
2022/03/06 03:54:19;;;;;;;28.20;15.07;;;2.20;66.20;;;;;;5000889;28;20216;-67
2022/03/06 03:56:46;;;;;;;25.93;15.17;;;2.20;66.10;;;;;;5016555;28;20223;-67
2022/03/06 03:59:13;;;;;;;32.07;15.43;;;2.20;66.00;;;;;;4996275;28;20236;-67
2022/03/06 04:01:40;;;;;;;23.10;14.47;;;2.20;65.90;;;;;;5021992;28;20214;-67
2022/03/06 04:04:08;;;;;;;26.33;14.47;;;2.30;65.90;;;;;;5023661;28;20630;-67
2022/03/06 04:06:35;;;;;;;23.93;13.53;;;2.30;65.80;;;;;;5003127;28;20233;-67
2022/03/06 04:09:02;;;;;;;28.07;15.50;;;2.30;65.70;;;;;;5019736;28;20207;-67
2022/03/06 04:11:29;;;;;;;27.23;14.07;;;2.40;65.70;;;;;;5025649;28;20204;-67
2022/03/06 04:13:56;;;;;;;27.33;15.23;;;2.40;65.70;;;;;;5009502;28;20196;-67
2022/03/06 04:16:23;;;;;;;26.13;14.73;;;2.40;65.60;;;;;;5013280;28;20299;-67
2022/03/06 04:18:50;;;;;;;27.03;15.77;;;2.40;65.60;;;;;;5023377;28;20207;-67
2022/03/06 04:21:17;;;;;;;24.03;14.50;;;2.50;65.70;;;;;;5019469;28;20205;-67
2022/03/06 04:23:46;;;;;;;25.27;13.77;;;2.50;65.70;;;;;;5023968;28;20212;-67
2022/03/06 04:26:13;;;;;;;24.83;15.03;;;2.50;65.60;;;;;;5025246;28;20250;-67
2022/03/06 04:28:40;;;;;;;29.10;13.53;;;2.60;65.50;;;;;;5019374;28;20211;-67
2022/03/06 04:31:07;;;;;;;24.50;14.63;;;2.60;65.40;;;;;;5019734;28;20228;-67
2022/03/06 04:33:34;;;;;;;21.17;13.77;;;2.60;65.20;;;;;;5023365;28;20207;-67
2022/03/06 04:36:01;;;;;;;25.67;14.10;;;2.70;64.80;;;;;;5027876;28;20214;-67
2022/03/06 04:38:28;;;;;;;22.57;13.00;;;2.70;64.60;;;;;;5024641;28;20220;-67
2022/03/06 04:40:55;;;;;;;21.27;13.67;;;2.70;64.50;;;;;;5029430;28;20209;-67
2022/03/06 04:43:24;;;;;;;24.53;13.27;;;2.80;64.40;;;;;;5019367;28;20643;-67
2022/03/06 04:45:52;;;;;;;23.47;13.50;;;2.90;64.20;;;;;;5023441;28;20220;-67
2022/03/06 04:48:19;;;;;;;24.87;13.20;;;2.90;64.60;;;;;;5021822;28;20210;-67
2022/03/06 04:50:46;;;;;;;24.43;12.87;;;2.90;63.80;;;;;;5019619;28;20204;-67
2022/03/06 04:53:13;;;;;;;21.93;12.63;;;3.00;63.70;;;;;;5018721;28;20389;-67
2022/03/06 04:55:40;;;;;;;22.53;12.33;;;3.00;63.50;;;;;;5022936;28;20536;-67
2022/03/06 04:58:07;;;;;;;21.97;13.60;;;3.00;63.50;;;;;;5029872;28;20298;-67
2022/03/06 05:00:34;;;;;;;22.10;12.50;;;3.10;63.60;;;;;;5023972;28;20286;-67
2022/03/06 05:03:02;;;;;;;23.03;13.70;;;3.10;63.70;;;;;;5017942;28;20221;-67
2022/03/06 05:05:29;;;;;;;22.07;13.67;;;3.10;63.70;;;;;;5018721;28;20247;-67
2022/03/06 05:07:56;;;;;;;21.87;12.53;;;3.10;63.60;;;;;;5012348;28;20325;-67
2022/03/06 05:10:24;;;;;;;20.00;12.00;;;3.10;63.40;;;;;;4995846;28;20231;-67
2022/03/06 05:12:51;;;;;;;23.70;12.63;;;3.10;63.30;;;;;;5012561;28;20203;-67
2022/03/06 05:15:18;;;;;;;23.57;13.17;;;3.10;63.60;;;;;;5017793;28;20210;-67
2022/03/06 05:17:46;;;;;;;24.03;13.30;;;3.10;63.40;;;;;;5019164;28;20516;-67
2022/03/06 05:20:14;;;;;;;21.13;11.93;;;3.20;63.40;;;;;;5025621;28;20665;-67
2022/03/06 05:22:41;;;;;;;20.70;13.03;;;3.20;63.40;;;;;;5021623;28;20200;-67
2022/03/06 05:25:10;;;;;;;19.00;12.40;;;3.20;64.00;;;;;;5019162;28;20227;-67
2022/03/06 05:27:38;;;;;;;22.07;13.63;;;3.20;63.30;;;;;;5009976;28;20209;-67
2022/03/06 05:30:07;;;;;;;21.20;13.23;;;3.20;63.20;;;;;;5029212;28;20591;-67
2022/03/06 05:32:34;;;;;;;20.33;12.13;;;3.20;63.20;;;;;;5025561;28;20645;-67
2022/03/06 05:35:01;;;;;;;20.90;12.40;;;3.30;62.80;;;;;;5021193;28;20210;-67
2022/03/06 05:37:29;;;;;;;24.00;12.00;;;3.30;62.70;;;;;;5021929;28;20214;-67
2022/03/06 05:39:56;;;;;;;21.47;12.70;;;3.30;62.70;;;;;;5020595;28;20204;-67
2022/03/06 05:42:24;;;;;;;21.37;12.70;;;3.40;62.60;;;;;;5024938;28;20212;-67
2022/03/06 05:44:51;;;;;;;28.00;13.80;;;3.40;62.50;;;;;;5026146;28;20210;-67
2022/03/06 05:47:18;;;;;;;21.97;12.53;;;3.40;62.40;;;;;;5016204;28;20235;-67
2022/03/06 05:49:45;;;;;;;16.53;11.53;;;3.50;62.30;;;;;;4999173;28;20224;-67
2022/03/06 05:52:12;;;;;;;19.43;12.03;;;3.50;61.80;;;;;;5024509;28;20215;-67
2022/03/06 05:54:39;;;;;;;18.37;11.23;;;3.50;61.40;;;;;;5024866;28;20197;-67
2022/03/06 05:57:06;;;;;;;19.93;11.83;;;3.60;60.90;;;;;;5013915;28;20206;-67
2022/03/06 05:59:33;;;;;;;21.97;12.17;;;3.70;60.70;;;;;;4999610;28;20659;-67
2022/03/06 06:02:01;;;;;;;18.80;11.87;;;3.70;60.20;;;;;;5031315;28;20261;-67
2022/03/06 06:04:28;;;;;;;21.03;11.23;;;3.80;60.00;;;;;;5027601;28;20209;-68
2022/03/06 06:06:56;;;;;;;18.53;11.87;;;3.90;59.30;;;;;;5029027;28;20240;-67
2022/03/06 06:09:23;;;;;;;20.00;12.53;;;4.10;59.60;;;;;;5003824;28;20664;-67
2022/03/06 06:11:50;;;;;;;20.80;12.00;;;4.20;59.40;;;;;;5018114;28;20644;-67
2022/03/06 06:14:17;;;;;;;22.00;10.97;;;4.30;59.10;;;;;;5022470;28;20625;-67
2022/03/06 06:16:46;;;;;;;20.13;11.93;;;4.50;58.80;;;;;;5024849;28;20205;-67
2022/03/06 06:19:14;;;;;;;19.30;11.70;;;4.60;58.50;;;;;;5019886;28;20210;-67
2022/03/06 06:21:44;;;;;;;19.10;11.80;;;4.70;58.50;;;;;;5016924;28;20263;-67
2022/03/06 06:24:12;;;;;;;21.63;11.67;;;4.70;58.10;;;;;;5020728;28;20220;-67
2022/03/06 06:26:40;;;;;;;23.10;12.67;;;4.80;58.30;;;;;;5026086;28;20229;-67
2022/03/06 06:29:07;;;;;;;17.43;11.70;;;4.90;58.50;;;;;;5020765;28;20198;-67
2022/03/06 06:31:34;;;;;;;22.07;12.13;;;4.90;58.60;;;;;;5016915;28;20221;-67
2022/03/06 06:34:01;;;;;;;19.47;12.07;;;4.90;58.70;;;;;;5018005;28;20244;-67
2022/03/06 06:36:28;;;;;;;21.60;12.80;;;4.80;58.50;;;;;;5021494;28;20220;-67
2022/03/06 06:38:55;;;;;;;22.87;12.47;;;4.80;59.10;;;;;;5008496;28;20201;-67
2022/03/06 06:41:22;;;;;;;19.80;12.83;;;4.80;59.50;;;;;;5002401;28;20232;-67
2022/03/06 06:43:49;;;;;;;20.97;13.13;;;4.80;60.10;;;;;;5016429;28;20278;-67
2022/03/06 06:46:17;;;;;;;20.30;11.47;;;4.80;60.50;;;;;;5019906;28;20222;-67
2022/03/06 06:48:44;;;;;;;21.53;13.30;;;4.80;60.50;;;;;;5024780;28;20673;-67
2022/03/06 06:51:11;;;;;;;20.07;12.73;;;4.90;60.70;;;;;;5020079;28;20705;-67
2022/03/06 06:53:38;;;;;;;22.90;13.93;;;4.90;61.30;;;;;;5016865;28;20587;-67
2022/03/06 06:56:05;;;;;;;83.40;47.40;;;5.00;60.80;;;;;;5022663;28;20580;-67
2022/03/06 06:58:32;;;;;;;427.80;354.17;;;5.00;61.30;;;;;;5019562;28;20206;-67
2022/03/06 07:00:59;;;;;;;1295.37;690.27;;;5.10;61.90;;;;;;5011024;28;20541;-67
2022/03/06 07:03:27;;;;;;;1999.90;999.90;;;5.20;61.80;;;;;;5010728;28;20252;-67
2022/03/06 07:05:55;;;;;;;208.60;117.30;;;5.20;61.40;;;;;;5018668;28;20221;-67
2022/03/06 07:08:23;;;;;;;200.47;80.43;;;5.30;60.90;;;;;;5019610;28;20199;-67
2022/03/06 07:10:50;;;;;;;41.57;22.07;;;5.40;59.90;;;;;;5024654;28;20260;-67
2022/03/06 07:13:17;;;;;;;22.30;13.57;;;5.40;59.70;;;;;;5020650;28;20202;-67
2022/03/06 07:15:44;;;;;;;19.40;11.67;;;5.40;59.50;;;;;;5014541;28;20343;-68
2022/03/06 07:18:11;;;;;;;20.47;13.90;;;5.40;60.00;;;;;;5015191;28;20704;-67
2022/03/06 07:20:38;;;;;;;25.63;14.73;;;5.40;60.10;;;;;;5006343;28;20218;-67
2022/03/06 07:23:06;;;;;;;22.47;13.73;;;5.40;59.50;;;;;;5022849;28;20209;-67
2022/03/06 07:25:33;;;;;;;24.03;13.40;;;5.40;59.90;;;;;;5018119;28;20507;-67
2022/03/06 07:28:00;;;;;;;21.87;13.90;;;5.40;60.10;;;;;;4998154;28;20241;-67
2022/03/06 07:30:27;;;;;;;22.43;13.80;;;5.40;59.60;;;;;;5021788;28;20202;-67
2022/03/06 07:32:54;;;;;;;23.23;14.17;;;5.40;59.70;;;;;;5023482;28;20218;-67
2022/03/06 07:35:22;;;;;;;26.33;15.70;;;5.40;59.30;;;;;;5008556;28;20613;-67
2022/03/06 07:37:50;;;;;;;33.47;17.33;;;5.50;59.40;;;;;;5016211;28;20217;-67
2022/03/06 07:40:18;;;;;;;25.67;14.67;;;5.60;59.30;;;;;;5020159;28;20213;-67
2022/03/06 07:42:46;;;;;;;27.17;14.37;;;5.70;59.10;;;;;;5027699;28;20224;-67
2022/03/06 07:45:13;;;;;;;20.87;13.37;;;5.80;59.20;;;;;;5026429;28;20301;-67
2022/03/06 07:47:41;;;;;;;25.20;14.63;;;6.00;57.80;;;;;;5001383;28;20253;-67
2022/03/06 07:50:10;;;;;;;19.37;13.03;;;6.10;57.00;;;;;;5019552;28;20218;-67
2022/03/06 07:52:38;;;;;;;20.70;13.23;;;6.20;56.60;;;;;;5015141;28;20198;-67
2022/03/06 07:55:06;;;;;;;20.57;13.70;;;6.40;57.00;;;;;;5022186;28;20264;-67
2022/03/06 07:57:34;;;;;;;23.60;14.17;;;6.50;55.90;;;;;;5031230;28;20549;-67
2022/03/06 08:00:02;;;;;;;20.30;13.33;;;6.70;55.90;;;;;;5020243;28;20245;-67
2022/03/06 08:02:35;;;;;;;22.37;11.70;;;6.80;55.20;;;;;;5021805;28;20276;-68
2022/03/06 08:05:04;;;;;;;21.53;13.90;;;6.80;53.60;;;;;;5024859;28;20648;-68
2022/03/06 08:07:32;;;;;;;21.90;13.47;;;6.80;54.10;;;;;;5009587;28;20234;-67
2022/03/06 08:09:59;;;;;;;21.90;12.13;;;6.80;54.60;;;;;;5002927;28;20214;-67
2022/03/06 08:12:27;;;;;;;17.20;11.00;;;6.80;54.50;;;;;;5014476;28;20695;-67
2022/03/06 08:14:54;;;;;;;18.17;11.50;;;6.90;55.10;;;;;;5026764;28;20201;-67
2022/03/06 08:17:22;;;;;;;20.17;12.93;;;7.00;53.70;;;;;;5027520;28;20199;-67
2022/03/06 08:19:49;;;;;;;18.23;10.97;;;7.00;54.80;;;;;;5023254;28;20575;-67
2022/03/06 08:22:16;;;;;;;16.10;11.20;;;7.10;53.90;;;;;;4998484;28;20659;-67
2022/03/06 08:24:43;;;;;;;18.73;10.53;;;7.20;52.40;;;;;;5007455;28;20282;-67
2022/03/06 08:27:10;;;;;;;19.57;12.67;;;7.30;54.00;;;;;;5025843;28;20234;-67
2022/03/06 08:29:37;;;;;;;17.93;11.07;;;7.30;52.90;;;;;;5012877;28;20211;-67
2022/03/06 08:32:04;;;;;;;16.73;11.40;;;7.30;54.20;;;;;;5021050;28;20207;-67
2022/03/06 08:34:31;;;;;;;19.03;12.33;;;7.40;53.70;;;;;;5017302;28;20293;-68
2022/03/06 08:36:59;;;;;;;18.37;12.10;;;7.50;53.30;;;;;;5023211;28;20305;-68
2022/03/06 08:39:26;;;;;;;18.07;12.10;;;7.50;53.20;;;;;;5026765;28;20554;-68
2022/03/06 08:41:53;;;;;;;18.00;11.57;;;7.60;52.80;;;;;;5004178;28;20304;-67
2022/03/06 08:44:20;;;;;;;17.23;11.27;;;7.60;53.30;;;;;;5016839;28;20206;-67
2022/03/06 08:46:47;;;;;;;21.43;13.00;;;7.50;53.60;;;;;;5024915;28;20221;-67
2022/03/06 08:49:14;;;;;;;15.13;10.60;;;7.50;54.10;;;;;;5025916;28;20280;-67
2022/03/06 08:51:41;;;;;;;15.80;10.63;;;7.50;54.90;;;;;;5010338;28;20218;-68
2022/03/06 08:54:08;;;;;;;16.77;10.23;;;7.60;54.90;;;;;;5028542;28;20207;-68
2022/03/06 08:56:35;;;;;;;19.80;12.00;;;7.80;55.10;;;;;;5018842;28;20293;-68
2022/03/06 08:59:02;;;;;;;15.03;10.80;;;7.90;53.80;;;;;;5022811;28;20231;-68
2022/03/06 09:01:30;;;;;;;17.20;11.73;;;8.00;53.60;;;;;;5021766;28;20603;-68
2022/03/06 09:03:57;;;;;;;17.80;11.97;;;8.00;53.00;;;;;;5023008;28;20211;-68
2022/03/06 09:06:24;;;;;;;17.13;10.97;;;8.00;53.30;;;;;;5017526;28;20220;-67
2022/03/06 09:08:51;;;;;;;19.20;11.33;;;8.10;53.80;;;;;;5004880;28;20643;-67
2022/03/06 09:11:18;;;;;;;16.70;10.70;;;8.10;53.40;;;;;;5029148;28;20200;-67
2022/03/06 09:13:45;;;;;;;18.37;11.60;;;8.10;54.10;;;;;;5023733;28;20284;-67
2022/03/06 09:16:12;;;;;;;19.43;10.93;;;8.10;53.90;;;;;;5019280;28;20261;-67
2022/03/06 09:18:39;;;;;;;18.97;11.70;;;8.10;54.00;;;;;;5027395;28;20198;-67
2022/03/06 09:21:06;;;;;;;20.03;11.70;;;8.20;53.30;;;;;;5005834;28;20206;-67
2022/03/06 09:23:33;;;;;;;16.83;11.57;;;8.30;53.60;;;;;;5027328;28;20526;-67
2022/03/06 09:26:00;;;;;;;16.57;10.10;;;8.40;54.70;;;;;;5029121;28;20544;-67
2022/03/06 09:28:27;;;;;;;16.57;10.13;;;8.40;55.00;;;;;;5017168;28;20244;-67
2022/03/06 09:30:54;;;;;;;15.50;9.73;;;8.60;54.30;;;;;;5021103;28;20239;-67
2022/03/06 09:33:22;;;;;;;14.57;10.47;;;8.80;53.80;;;;;;5008029;28;20262;-67
2022/03/06 09:35:49;;;;;;;17.67;10.43;;;9.00;53.40;;;;;;5020887;28;20215;-67
2022/03/06 09:38:16;;;;;;;15.07;9.93;;;9.10;51.70;;;;;;4999318;28;20215;-67
2022/03/06 09:40:44;;;;;;;14.27;9.97;;;9.30;50.90;;;;;;5014013;28;20211;-67
2022/03/06 09:43:17;;;;;;;13.23;9.13;;;9.40;51.50;;;;;;5018585;28;20211;-67
2022/03/06 09:45:47;;;;;;;14.47;8.83;;;9.40;49.60;;;;;;5025463;28;20651;-67
2022/03/06 09:48:16;;;;;;;15.00;9.53;;;9.50;48.00;;;;;;5014561;28;20281;-67
2022/03/06 09:50:44;;;;;;;14.93;9.70;;;9.40;49.50;;;;;;5018804;28;20214;-67
2022/03/06 09:53:11;;;;;;;16.17;10.03;;;9.40;50.50;;;;;;5019878;28;20216;-67
2022/03/06 09:55:38;;;;;;;14.60;9.97;;;9.40;51.20;;;;;;5025217;28;20202;-67
2022/03/06 09:58:05;;;;;;;16.67;10.17;;;9.50;51.60;;;;;;5024962;28;20207;-67
2022/03/06 10:00:34;;;;;;;16.37;9.27;;;9.70;50.10;;;;;;5016505;28;20306;-67
2022/03/06 10:03:03;;;;;;;15.63;9.70;;;9.80;47.00;;;;;;5016900;28;20597;-67
2022/03/06 10:05:36;;;;;;;13.03;9.47;;;9.80;48.90;;;;;;5023025;28;20209;-67
2022/03/06 10:08:27;;;;;;;15.73;9.70;;;9.70;46.80;;;;;;5022384;28;20681;-67
2022/03/06 10:10:56;;;;;;;14.47;9.40;;;9.70;49.50;;;;;;5018747;28;20210;-67
2022/03/06 10:13:34;;;;;;;15.40;9.53;;;9.90;46.50;;;;;;5023290;28;20215;-67
2022/03/06 10:16:08;;;;;;;14.10;9.43;;;9.90;46.70;;;;;;4988653;28;20645;-67
2022/03/06 10:18:54;;;;;;;10.80;7.07;;;10.10;48.10;;;;;;5028360;28;20211;-67
2022/03/06 10:21:25;;;;;;;13.23;8.57;;;10.30;45.80;;;;;;5013073;28;20227;-67
2022/03/06 10:24:01;;;;;;;12.90;8.47;;;10.60;44.80;;;;;;4998723;28;20222;-67
2022/03/06 10:26:30;;;;;;;11.63;7.53;;;10.80;46.20;;;;;;5015011;28;20208;-67
2022/03/06 10:28:59;;;;;;;10.30;7.27;;;11.00;45.30;;;;;;5024157;28;20201;-67
2022/03/06 10:31:29;;;;;;;11.87;7.57;;;11.00;42.40;;;;;;5021218;28;20220;-67
2022/03/06 10:34:01;;;;;;;10.80;6.90;;;11.00;43.20;;;;;;4998245;28;20549;-67
2022/03/06 10:36:35;;;;;;;10.33;7.13;;;11.00;41.90;;;;;;5012302;28;20212;-67
2022/03/06 10:39:11;;;;;;;10.67;6.80;;;11.00;41.80;;;;;;4998763;28;20548;-67
2022/03/06 10:41:41;;;;;;;10.50;6.83;;;11.10;40.80;;;;;;5005082;28;20209;-68
2022/03/06 10:44:10;;;;;;;13.10;7.60;;;11.20;42.20;;;;;;5031348;28;20210;-67
2022/03/06 10:46:38;;;;;;;9.67;7.23;;;11.30;40.30;;;;;;5016607;28;20600;-67
2022/03/06 10:49:18;;;;;;;9.50;6.50;;;11.40;38.60;;;;;;5019538;28;20252;-67
2022/03/06 10:51:48;;;;;;;9.53;6.97;;;11.40;38.80;;;;;;5026306;28;20202;-67
2022/03/06 10:54:16;;;;;;;10.27;6.90;;;11.40;38.60;;;;;;5020354;28;20201;-67
2022/03/06 10:56:49;;;;;;;12.33;7.80;;;11.40;39.30;;;;;;5014275;28;20201;-67
2022/03/06 10:59:26;;;;;;;11.20;7.67;;;11.50;41.20;;;;;;5013546;28;20606;-68
2022/03/06 11:01:54;;;;;;;10.77;6.77;;;11.60;39.80;;;;;;5005082;28;20202;-68
2022/03/06 11:04:21;;;;;;;9.37;7.20;;;11.70;38.90;;;;;;5000930;28;20207;-68
2022/03/06 11:06:51;;;;;;;10.00;6.80;;;11.40;38.90;;;;;;4997283;28;20264;-68
2022/03/06 11:09:19;;;;;;;8.37;6.20;;;11.10;37.50;;;;;;5006331;28;20200;-67
2022/03/06 11:11:53;;;;;;;10.30;6.87;;;10.90;38.00;;;;;;4999835;28;20293;-67
2022/03/06 11:14:20;;;;;;;12.63;6.60;;;10.90;39.70;;;;;;5005471;28;20225;-68
2022/03/06 11:16:48;;;;;;;11.70;6.73;;;11.00;39.30;;;;;;5004103;28;20202;-67
2022/03/06 11:19:15;;;;;;;9.40;6.90;;;11.00;40.00;;;;;;4995192;28;20524;-67
2022/03/06 11:21:45;;;;;;;10.37;6.77;;;10.90;40.40;;;;;;4999177;28;20206;-67
2022/03/06 11:24:28;;;;;;;10.23;7.27;;;10.80;39.20;;;;;;4997634;28;21033;-67
2022/03/06 11:27:20;;;;;;;9.60;6.20;;;11.00;41.40;;;;;;5012713;28;20209;-67
2022/03/06 11:30:06;;;;;;;9.20;6.33;;;11.00;40.60;;;;;;4968714;28;20214;-67
2022/03/06 11:32:39;;;;;;;8.10;5.93;;;11.00;39.90;;;;;;5014427;28;20227;-67
2022/03/06 11:35:10;;;;;;;8.53;6.37;;;11.10;38.70;;;;;;5013952;28;20206;-67
2022/03/06 11:37:57;;;;;;;11.93;6.93;;;11.20;39.00;;;;;;4999745;28;20635;-68
2022/03/06 11:40:45;;;;;;;8.27;6.13;;;11.30;37.90;;;;;;5009851;28;20649;-68
2022/03/06 11:43:35;;;;;;;7.73;6.00;;;11.50;38.70;;;;;;4998641;28;20217;-67
2022/03/06 11:46:08;;;;;;;7.63;5.80;;;11.40;38.00;;;;;;5003339;28;20537;-67
2022/03/06 11:48:35;;;;;;;14.97;6.47;;;11.20;38.10;;;;;;5003253;28;20227;-67
2022/03/06 11:51:15;;;;;;;9.27;6.60;;;11.00;39.80;;;;;;4998239;28;20288;-67
2022/03/06 11:53:47;;;;;;;10.87;6.77;;;10.90;39.30;;;;;;4997449;28;20658;-67
2022/03/06 11:56:38;;;;;;;14.03;7.00;;;10.70;38.70;;;;;;5004835;28;20647;-67
2022/03/06 11:59:11;;;;;;;12.37;7.10;;;10.70;39.20;;;;;;5000646;28;20240;-67
2022/03/06 12:01:41;;;;;;;8.20;6.20;;;10.90;41.90;;;;;;4995079;28;20213;-67
2022/03/06 12:04:09;;;;;;;8.20;6.50;;;11.10;39.40;;;;;;5004798;28;20206;-67
2022/03/06 12:06:40;;;;;;;12.33;6.30;;;11.00;40.00;;;;;;5002917;28;20228;-67
2022/03/06 12:09:22;;;;;;;10.47;6.80;;;10.90;39.80;;;;;;5005485;28;20668;-67
2022/03/06 12:11:51;;;;;;;9.77;6.83;;;10.80;39.90;;;;;;5000321;28;20212;-67
2022/03/06 12:14:19;;;;;;;11.77;7.57;;;10.60;39.60;;;;;;4995521;28;20605;-68
2022/03/06 12:17:12;;;;;;;7.20;5.60;;;10.40;40.00;;;;;;4996382;28;20203;-68
2022/03/06 12:19:42;;;;;;;8.63;6.47;;;10.20;38.90;;;;;;5002393;28;20226;-68
2022/03/06 12:22:09;;;;;;;9.30;6.43;;;10.00;39.10;;;;;;4981458;28;20221;-67
2022/03/06 12:24:37;;;;;;;7.83;5.90;;;9.90;40.70;;;;;;4995442;28;20219;-68
2022/03/06 12:27:15;;;;;;;10.50;6.47;;;10.10;39.50;;;;;;5012928;28;20251;-67
2022/03/06 12:29:48;;;;;;;9.23;6.70;;;10.30;40.30;;;;;;5005025;28;20202;-67
2022/03/06 12:32:27;;;;;;;11.10;6.83;;;10.60;41.90;;;;;;5003152;28;20255;-67
2022/03/06 12:34:59;;;;;;;11.37;6.40;;;10.90;39.90;;;;;;5005332;28;20220;-67
2022/03/06 12:37:30;;;;;;;9.07;6.17;;;11.00;39.00;;;;;;4999541;28;20219;-67
2022/03/06 12:39:59;;;;;;;10.47;7.23;;;11.20;39.20;;;;;;5005061;28;20222;-67
2022/03/06 12:42:29;;;;;;;10.67;6.73;;;11.40;37.60;;;;;;5010524;28;20594;-67
2022/03/06 12:45:02;;;;;;;9.03;6.40;;;11.40;37.00;;;;;;5001229;28;20207;-67
2022/03/06 12:47:29;;;;;;;10.90;7.30;;;11.50;37.80;;;;;;4999007;28;20228;-67